Time;durP1;ratioP1;P1;durP2;ratioP2;P2;SDS_P1;SDS_P2;PMS_P1;PMS_P2;Temp;Humidity;BMP_temperature;BMP_pressure;BME280_temperature;BME280_humidity;BME280_pressure;Samples;Min_cycle;Max_cycle;Signal;HPM_P1;HPM_P2
2023/10/19 00:01:11;;;;;;;19.55;13.75;;;8.50;99.90;;;;;;5042882;28;20425;-76
2023/10/19 00:03:37;;;;;;;18.33;13.48;;;8.50;99.90;;;;;;5071752;28;20032;-75
2023/10/19 00:06:05;;;;;;;18.17;13.60;;;8.50;99.90;;;;;;5071811;28;20045;-76
2023/10/19 00:08:41;;;;;;;20.42;12.65;;;8.50;99.90;;;;;;5053922;28;20036;-76
2023/10/19 00:13:35;;;;;;;19.27;13.88;;;8.60;99.90;;;;;;5061903;28;20044;-77
2023/10/19 00:16:11;;;;;;;21.55;14.95;;;8.60;99.90;;;;;;5054630;28;20076;-77
2023/10/19 00:18:41;;;;;;;19.50;11.43;;;8.50;99.90;;;;;;5048672;28;20064;-77
2023/10/19 00:21:25;;;;;;;18.83;12.80;;;8.50;99.90;;;;;;5054349;28;20127;-77
2023/10/19 00:23:57;;;;;;;20.10;13.07;;;8.60;99.90;;;;;;5054610;28;20488;-78
2023/10/19 00:26:25;;;;;;;19.27;13.32;;;8.60;99.90;;;;;;5071405;28;20032;-78
2023/10/19 00:28:55;;;;;;;20.05;13.77;;;8.60;99.90;;;;;;5052558;28;20033;-78
2023/10/19 00:31:21;;;;;;;18.17;13.68;;;8.60;99.90;;;;;;5050275;28;20043;-79
2023/10/19 00:33:47;;;;;;;16.80;12.68;;;8.70;99.90;;;;;;5053792;28;20036;-78
2023/10/19 00:36:13;;;;;;;20.55;13.20;;;8.60;99.90;;;;;;5051806;28;20039;-78
2023/10/19 00:38:40;;;;;;;17.33;12.23;;;8.60;99.90;;;;;;5053380;28;20032;-76
2023/10/19 00:41:11;;;;;;;17.58;12.98;;;8.60;99.90;;;;;;5050248;28;20502;-76
2023/10/19 00:43:43;;;;;;;17.70;13.27;;;8.60;99.90;;;;;;5063438;28;20032;-76
2023/10/19 00:48:49;;;;;;;19.98;14.18;;;8.60;99.90;;;;;;5059374;28;20127;-77
2023/10/19 00:51:40;;;;;;;20.75;15.20;;;8.60;99.90;;;;;;5054692;28;20075;-77
2023/10/19 00:54:41;;;;;;;23.58;16.15;;;8.50;99.90;;;;;;5074414;28;20056;-77
2023/10/19 00:57:09;;;;;;;20.17;14.18;;;8.50;99.90;;;;;;5041649;28;20075;-76
2023/10/19 00:59:42;;;;;;;19.75;14.98;;;8.60;99.90;;;;;;5054417;28;20048;-76
2023/10/19 01:02:19;;;;;;;20.27;15.23;;;8.60;99.90;;;;;;5052036;28;20090;-76
2023/10/19 01:04:50;;;;;;;22.92;17.90;;;8.60;99.90;;;;;;5055785;28;20040;-76
2023/10/19 01:09:59;;;;;;;21.83;16.70;;;8.50;99.90;;;;;;5071582;28;20123;-76
2023/10/19 01:12:25;;;;;;;22.13;16.73;;;8.50;99.90;;;;;;5055573;28;20519;-76
2023/10/19 01:15:16;;;;;;;21.23;14.85;;;8.40;99.90;;;;;;5070997;28;20072;-76
2023/10/19 01:17:58;;;;;;;22.70;15.10;;;8.40;99.90;;;;;;5054225;28;20054;-76
2023/10/19 01:20:42;;;;;;;21.27;16.13;;;8.50;99.90;;;;;;5054001;28;20043;-76
2023/10/19 01:31:14;;;;;;;19.85;13.07;;;8.50;99.90;;;;;;5076608;28;20054;-75
2023/10/19 01:33:41;;;;;;;18.83;12.60;;;8.60;99.90;;;;;;5055309;28;20480;-75
2023/10/19 01:36:11;;;;;;;19.50;14.15;;;8.60;99.90;;;;;;5042101;28;20044;-75
2023/10/19 01:38:37;;;;;;;19.27;13.40;;;8.70;99.90;;;;;;5048822;28;20170;-75
2023/10/19 01:41:13;;;;;;;20.58;15.25;;;8.60;99.90;;;;;;5072712;28;20051;-74
2023/10/19 01:43:40;;;;;;;21.27;15.90;;;8.70;99.90;;;;;;5071688;28;20033;-74
2023/10/19 01:46:13;;;;;;;19.48;14.75;;;8.60;99.90;;;;;;5055791;28;20040;-73
2023/10/19 01:48:40;;;;;;;;;;;8.60;99.90;;;;;;5086300;28;20041;-74
2023/10/19 01:51:10;;;;;;;19.48;13.35;;;8.60;99.90;;;;;;5056980;28;20353;-74
2023/10/19 01:53:36;;;;;;;19.70;14.95;;;8.70;99.90;;;;;;5068626;28;20064;-74
2023/10/19 01:56:05;;;;;;;21.23;15.10;;;8.60;99.90;;;;;;5071195;28;20059;-73
2023/10/19 01:58:36;;;;;;;17.10;12.40;;;8.70;99.90;;;;;;5054157;28;20079;-74
2023/10/19 02:01:30;;;;;;;23.08;16.52;;;8.60;99.90;;;;;;5069896;28;20044;-75
2023/10/19 02:04:05;;;;;;;21.42;15.23;;;8.60;99.90;;;;;;5070475;28;20111;-75
2023/10/19 02:09:09;;;;;;;22.25;16.33;;;8.50;99.90;;;;;;5064522;28;20048;-77
2023/10/19 02:11:37;;;;;;;18.80;13.68;;;8.50;99.90;;;;;;5071226;28;20037;-76
2023/10/19 02:14:11;;;;;;;20.50;14.70;;;8.60;99.90;;;;;;5053554;28;20033;-77
2023/10/19 02:16:37;;;;;;;20.67;14.93;;;8.60;99.90;;;;;;5053451;28;20086;-76
2023/10/19 02:19:03;;;;;;;19.15;13.35;;;8.60;99.90;;;;;;5055321;28;20132;-76
2023/10/19 02:21:30;;;;;;;19.63;14.98;;;8.60;99.90;;;;;;5071093;28;20127;-77
2023/10/19 02:23:57;;;;;;;22.45;16.77;;;8.60;99.90;;;;;;5086815;28;20033;-75
2023/10/19 02:26:26;;;;;;;18.05;13.48;;;8.60;99.90;;;;;;5055514;28;20554;-75
2023/10/19 02:28:52;;;;;;;19.70;13.45;;;8.60;99.90;;;;;;5067071;28;20044;-76
2023/10/19 02:31:20;;;;;;;17.33;13.00;;;8.60;99.90;;;;;;5070540;28;20043;-76
2023/10/19 02:33:46;;;;;;;17.42;11.70;;;8.60;99.90;;;;;;5066640;28;20043;-74
2023/10/19 02:36:15;;;;;;;16.70;12.55;;;8.70;99.90;;;;;;5054178;28;20036;-75
2023/10/19 02:38:44;;;;;;;18.25;13.18;;;8.70;99.90;;;;;;5071994;28;20044;-75
2023/10/19 02:41:10;;;;;;;16.33;11.80;;;8.70;99.90;;;;;;5050934;28;20045;-76
2023/10/19 02:43:37;;;;;;;15.57;11.63;;;8.70;99.90;;;;;;5070707;28;20041;-74
2023/10/19 02:46:03;;;;;;;16.30;12.15;;;8.70;99.90;;;;;;5055313;28;20366;-74
2023/10/19 02:48:29;;;;;;;15.02;11.30;;;8.60;99.90;;;;;;5067093;28;20032;-74
2023/10/19 02:50:55;;;;;;;16.17;12.35;;;8.70;99.90;;;;;;5063525;28;20045;-74
2023/10/19 02:53:21;;;;;;;16.92;12.55;;;8.60;99.90;;;;;;5051765;28;20408;-75
2023/10/19 02:55:46;;;;;;;14.65;11.50;;;8.60;99.90;;;;;;5051808;28;20063;-74
2023/10/19 02:58:13;;;;;;;16.80;12.45;;;8.60;99.90;;;;;;5070290;28;20119;-74
2023/10/19 03:00:40;;;;;;;14.80;11.18;;;8.60;99.90;;;;;;5053621;28;20132;-74
2023/10/19 03:03:06;;;;;;;22.45;10.27;;;8.60;99.90;;;;;;5054053;28;20123;-74
2023/10/19 03:05:34;;;;;;;14.88;11.48;;;8.60;99.90;;;;;;5054187;28;20040;-75
2023/10/19 03:08:05;;;;;;;15.65;11.25;;;8.60;99.90;;;;;;5071194;28;20044;-74
2023/10/19 03:10:41;;;;;;;14.07;10.17;;;8.70;99.90;;;;;;5065349;28;20051;-75
2023/10/19 03:13:08;;;;;;;15.50;11.38;;;8.70;99.90;;;;;;5058335;28;20041;-75
2023/10/19 03:15:34;;;;;;;14.75;11.32;;;8.70;99.90;;;;;;5054048;28;20441;-75
2023/10/19 03:18:01;;;;;;;14.68;10.80;;;8.70;99.90;;;;;;5055338;28;20041;-75
2023/10/19 03:20:28;;;;;;;14.65;10.77;;;8.70;99.90;;;;;;5053727;28;20040;-75
2023/10/19 03:22:58;;;;;;;15.98;11.38;;;8.70;99.90;;;;;;5055286;28;20488;-75
2023/10/19 03:28:11;;;;;;;15.48;12.10;;;8.70;99.90;;;;;;5070272;28;20446;-75
2023/10/19 03:30:38;;;;;;;14.43;10.43;;;8.70;99.90;;;;;;5051729;28;20043;-75
2023/10/19 03:33:05;;;;;;;12.68;9.57;;;8.60;99.90;;;;;;5065469;28;20435;-75
2023/10/19 03:35:30;;;;;;;12.95;9.32;;;8.70;99.90;;;;;;5039759;28;20040;-76
2023/10/19 03:38:00;;;;;;;14.02;10.57;;;8.70;99.90;;;;;;5054077;28;20052;-75
2023/10/19 03:40:31;;;;;;;31.92;28.67;;;8.70;99.90;;;;;;5054433;28;20043;-76
2023/10/19 03:42:57;;;;;;;14.75;11.23;;;8.70;99.90;;;;;;5068622;28;20094;-76
2023/10/19 03:45:24;;;;;;;18.27;16.35;;;8.70;99.90;;;;;;5048917;28;20045;-75
2023/10/19 03:47:53;;;;;;;12.27;8.02;;;8.70;99.90;;;;;;5052873;28;20043;-76
2023/10/19 03:50:21;;;;;;;12.52;9.77;;;8.70;99.90;;;;;;5069060;28;20043;-76
2023/10/19 03:52:47;;;;;;;13.88;10.52;;;8.70;99.90;;;;;;5054246;28;20043;-76
2023/10/19 03:55:18;;;;;;;13.57;9.77;;;8.70;99.90;;;;;;5051875;28;20493;-76
2023/10/19 03:57:47;;;;;;;13.18;9.55;;;8.70;99.90;;;;;;5069650;28;20508;-76
2023/10/19 04:00:17;;;;;;;14.18;9.90;;;8.70;99.90;;;;;;5052353;28;20044;-76
2023/10/19 04:02:43;;;;;;;12.48;8.38;;;8.70;99.90;;;;;;5085087;28;20400;-76
2023/10/19 04:05:14;;;;;;;13.68;9.65;;;8.80;99.90;;;;;;5051696;28;20036;-76
2023/10/19 04:07:41;;;;;;;13.27;9.45;;;8.70;99.90;;;;;;5051425;28;20040;-76
2023/10/19 04:12:37;;;;;;;11.40;8.60;;;8.80;99.90;;;;;;5067312;28;20044;-76
2023/10/19 04:15:16;;;;;;;12.35;9.15;;;8.80;99.90;;;;;;5054857;28;20086;-75
2023/10/19 04:17:45;;;;;;;11.80;7.75;;;8.80;99.90;;;;;;5067310;28;20069;-75
2023/10/19 04:22:49;;;;;;;10.65;7.95;;;8.80;99.90;;;;;;5070211;28;20045;-75
2023/10/19 04:25:16;;;;;;;12.20;8.75;;;8.80;99.90;;;;;;5066627;28;20367;-75
2023/10/19 04:27:45;;;;;;;11.85;8.65;;;8.80;99.90;;;;;;5039829;28;20374;-75
2023/10/19 04:30:21;;;;;;;11.65;8.77;;;8.70;99.90;;;;;;5072528;28;20048;-76
2023/10/19 04:32:47;;;;;;;10.27;7.32;;;8.70;99.90;;;;;;5074363;28;20049;-75
2023/10/19 04:35:14;;;;;;;10.70;6.90;;;8.80;99.90;;;;;;5070906;28;20051;-75
2023/10/19 04:37:42;;;;;;;9.85;6.57;;;8.80;99.90;;;;;;5074139;28;20040;-75
2023/10/19 04:40:11;;;;;;;10.07;6.32;;;8.90;99.90;;;;;;5062471;28;20127;-76
2023/10/19 04:42:40;;;;;;;9.95;6.60;;;8.90;99.90;;;;;;5057319;28;20175;-75
2023/10/19 04:45:06;;;;;;;13.15;6.75;;;8.90;99.90;;;;;;5072864;28;20473;-75
2023/10/19 04:47:35;;;;;;;9.93;7.18;;;8.90;99.90;;;;;;5057205;28;20051;-75
2023/10/19 04:50:06;;;;;;;9.25;5.90;;;8.90;99.90;;;;;;5067536;28;20044;-75
2023/10/19 04:52:32;;;;;;;10.15;6.30;;;8.90;99.90;;;;;;5073891;28;20049;-75
2023/10/19 04:54:58;;;;;;;9.25;6.35;;;8.90;99.90;;;;;;5055954;28;20543;-75
2023/10/19 04:57:25;;;;;;;9.40;6.20;;;8.90;99.90;;;;;;5072301;28;20081;-75
2023/10/19 04:59:51;;;;;;;9.00;6.20;;;8.90;99.90;;;;;;5073371;28;20068;-75
2023/10/19 05:02:17;;;;;;;9.30;6.65;;;8.80;99.90;;;;;;5074350;28;20141;-76
2023/10/19 05:04:43;;;;;;;9.13;6.32;;;8.80;99.90;;;;;;5056241;28;20043;-76
2023/10/19 05:07:12;;;;;;;9.60;6.00;;;8.80;99.90;;;;;;5054296;28;20064;-76
2023/10/19 05:09:39;;;;;;;10.30;6.22;;;8.80;99.90;;;;;;5056161;28;20036;-76
2023/10/19 05:12:09;;;;;;;8.63;5.70;;;8.80;99.90;;;;;;5055707;28;20392;-76
2023/10/19 05:14:44;;;;;;;9.50;6.60;;;8.90;99.90;;;;;;5056392;28;20458;-76
2023/10/19 05:17:10;;;;;;;8.35;5.07;;;8.80;99.90;;;;;;5067953;28;20040;-76
2023/10/19 05:19:36;;;;;;;7.93;5.25;;;8.90;99.90;;;;;;5054115;28;20373;-77
2023/10/19 05:22:05;;;;;;;8.30;5.40;;;8.90;99.90;;;;;;5055202;28;20506;-76
2023/10/19 05:24:32;;;;;;;9.25;5.43;;;8.90;99.90;;;;;;5054323;28;20032;-76
2023/10/19 05:26:57;;;;;;;8.63;5.72;;;8.90;99.90;;;;;;5057395;28;20419;-76
2023/10/19 05:29:26;;;;;;;9.02;6.32;;;8.90;99.90;;;;;;5055894;28;20075;-76
2023/10/19 05:31:57;;;;;;;8.27;5.47;;;8.90;99.90;;;;;;5070988;28;20512;-76
2023/10/19 05:34:26;;;;;;;9.23;6.07;;;8.90;99.90;;;;;;5088926;28;20047;-75
2023/10/19 05:36:53;;;;;;;8.20;5.13;;;8.90;99.90;;;;;;5054591;28;20033;-76
2023/10/19 05:39:20;;;;;;;9.15;5.50;;;8.90;99.90;;;;;;5073068;28;20040;-76
2023/10/19 05:41:46;;;;;;;9.32;5.85;;;8.90;99.90;;;;;;5055195;28;20044;-75
2023/10/19 05:44:12;;;;;;;8.38;5.38;;;8.90;99.90;;;;;;5052333;28;20039;-75
2023/10/19 05:46:40;;;;;;;8.05;5.13;;;8.90;99.90;;;;;;5068254;28;20112;-76
2023/10/19 05:49:06;;;;;;;8.48;4.78;;;8.90;99.90;;;;;;5061334;28;20409;-76
2023/10/19 05:51:32;;;;;;;8.10;5.10;;;8.90;99.90;;;;;;5044282;28;20032;-76
2023/10/19 05:54:03;;;;;;;7.47;4.43;;;8.90;99.90;;;;;;5053325;28;20029;-76
2023/10/19 05:56:30;;;;;;;8.00;5.10;;;8.90;99.90;;;;;;5055143;28;21308;-76
2023/10/19 05:58:56;;;;;;;7.60;4.63;;;8.90;99.90;;;;;;5070960;28;20207;-76
2023/10/19 06:01:22;;;;;;;7.38;4.85;;;8.90;99.90;;;;;;5071536;28;20040;-76
2023/10/19 06:03:48;;;;;;;8.15;5.28;;;9.00;99.90;;;;;;5054487;28;20047;-76
2023/10/19 06:06:13;;;;;;;8.15;5.07;;;8.90;99.90;;;;;;5059176;28;20082;-76
2023/10/19 06:08:40;;;;;;;8.18;5.60;;;8.90;99.90;;;;;;5070805;28;20107;-77
2023/10/19 06:11:06;;;;;;;9.25;5.50;;;8.90;99.90;;;;;;5065915;28;20491;-76
2023/10/19 06:13:32;;;;;;;8.20;5.50;;;8.80;99.90;;;;;;5043092;28;20036;-76
2023/10/19 06:15:57;;;;;;;9.60;6.38;;;8.90;99.90;;;;;;5070775;28;20408;-76
2023/10/19 06:18:23;;;;;;;8.95;5.80;;;9.00;99.90;;;;;;5054614;28;20047;-75
2023/10/19 06:20:51;;;;;;;8.10;5.68;;;8.90;99.90;;;;;;5053883;28;20116;-75
2023/10/19 06:23:17;;;;;;;8.02;5.45;;;8.80;99.90;;;;;;5054770;28;20040;-76
2023/10/19 06:25:43;;;;;;;7.53;4.95;;;8.90;99.90;;;;;;5071460;28;20036;-76
2023/10/19 06:28:11;;;;;;;8.27;4.90;;;8.90;99.90;;;;;;5071308;28;20040;-76
2023/10/19 06:30:37;;;;;;;8.73;5.25;;;9.00;99.90;;;;;;5063528;28;20409;-76
2023/10/19 06:33:03;;;;;;;7.78;4.50;;;9.00;99.90;;;;;;5059416;28;20048;-76
2023/10/19 06:35:33;;;;;;;7.75;4.57;;;9.00;99.90;;;;;;5087528;28;20087;-76
2023/10/19 06:38:03;;;;;;;6.97;4.50;;;9.00;99.90;;;;;;5072591;28;20567;-76
2023/10/19 06:40:29;;;;;;;6.45;3.63;;;9.00;99.90;;;;;;5055505;28;20044;-76
2023/10/19 06:42:56;;;;;;;6.80;4.30;;;9.00;99.90;;;;;;5056019;28;20032;-76
2023/10/19 06:45:22;;;;;;;7.60;4.57;;;9.00;99.90;;;;;;5072474;28;20041;-76
2023/10/19 06:47:52;;;;;;;6.60;3.97;;;9.00;99.90;;;;;;5055540;28;20422;-76
2023/10/19 06:50:21;;;;;;;6.90;3.92;;;8.90;99.90;;;;;;5055778;28;20501;-76
2023/10/19 06:52:47;;;;;;;6.80;3.83;;;8.90;99.90;;;;;;5055726;28;20049;-76
2023/10/19 06:55:16;;;;;;;6.85;4.07;;;9.00;99.90;;;;;;5069911;28;20060;-76
2023/10/19 06:57:47;;;;;;;7.10;4.35;;;9.00;99.90;;;;;;5061396;28;20568;-77
2023/10/19 07:00:19;;;;;;;6.80;4.50;;;9.00;99.90;;;;;;5052171;28;20094;-76
2023/10/19 07:02:46;;;;;;;5.95;3.70;;;9.00;99.90;;;;;;5063598;28;20052;-76
2023/10/19 07:05:13;;;;;;;7.15;4.10;;;9.00;99.90;;;;;;5089382;28;20032;-77
2023/10/19 07:07:41;;;;;;;6.47;4.15;;;9.00;99.90;;;;;;5065966;28;20367;-77
2023/10/19 07:10:14;;;;;;;6.55;3.80;;;8.90;99.90;;;;;;5066953;28;20036;-77
2023/10/19 07:12:43;;;;;;;6.15;3.60;;;9.00;99.90;;;;;;5055412;28;20044;-77
2023/10/19 07:15:18;;;;;;;6.38;3.60;;;9.00;99.90;;;;;;5070886;28;20044;-77
2023/10/19 07:17:48;;;;;;;5.05;3.15;;;9.00;99.90;;;;;;5087637;28;20493;-76
2023/10/19 07:20:25;;;;;;;5.10;2.97;;;9.00;99.90;;;;;;5052111;28;20402;-76
2023/10/19 07:23:09;;;;;;;5.43;3.05;;;9.00;99.90;;;;;;5054551;28;20059;-76
2023/10/19 07:25:43;;;;;;;4.88;3.00;;;9.00;99.90;;;;;;5054326;28;20099;-75
2023/10/19 07:28:09;;;;;;;4.65;2.80;;;9.10;99.90;;;;;;5071091;28;20427;-76
2023/10/19 07:30:35;;;;;;;4.90;3.13;;;9.10;99.90;;;;;;5055344;28;20443;-76
2023/10/19 07:33:00;;;;;;;6.00;3.63;;;9.10;99.90;;;;;;5088702;28;20040;-76
2023/10/19 07:35:27;;;;;;;5.78;3.35;;;9.10;99.90;;;;;;5087696;28;20416;-76
2023/10/19 07:37:53;;;;;;;5.80;3.50;;;9.10;99.90;;;;;;5087079;28;20444;-76
2023/10/19 07:40:18;;;;;;;6.45;3.45;;;9.10;99.90;;;;;;5059025;28;20048;-76
2023/10/19 07:42:46;;;;;;;6.88;3.58;;;9.10;99.90;;;;;;5051760;28;20559;-76
2023/10/19 07:45:12;;;;;;;6.40;4.10;;;9.10;99.90;;;;;;5052408;28;20513;-76
2023/10/19 07:47:42;;;;;;;5.97;3.60;;;9.00;99.90;;;;;;5051895;28;20393;-76
2023/10/19 07:50:12;;;;;;;5.90;3.40;;;9.00;99.90;;;;;;5060606;28;20040;-76
2023/10/19 07:52:38;;;;;;;6.10;3.33;;;9.10;99.90;;;;;;5089214;28;20498;-76
2023/10/19 07:55:06;;;;;;;6.63;3.88;;;9.10;99.90;;;;;;5068316;28;20048;-78
2023/10/19 07:57:33;;;;;;;6.22;3.60;;;9.10;99.90;;;;;;5070837;28;20040;-78
2023/10/19 07:59:59;;;;;;;5.72;3.53;;;9.20;99.90;;;;;;5051630;28;20059;-78
2023/10/19 08:02:28;;;;;;;5.72;3.58;;;9.20;99.90;;;;;;5075698;28;20480;-76
2023/10/19 08:04:54;;;;;;;6.43;3.97;;;9.30;99.90;;;;;;5072331;28;20047;-77
2023/10/19 08:07:19;;;;;;;7.00;4.55;;;9.20;99.90;;;;;;5057020;28;20040;-77
2023/10/19 08:09:45;;;;;;;6.57;4.10;;;9.20;99.90;;;;;;5074411;28;20036;-76
2023/10/19 08:12:13;;;;;;;6.45;3.97;;;9.20;99.90;;;;;;5075697;28;20075;-76
2023/10/19 08:14:39;;;;;;;7.03;4.20;;;9.30;99.90;;;;;;5071843;28;20079;-76
2023/10/19 08:17:05;;;;;;;6.72;3.95;;;9.30;99.90;;;;;;5064781;28;20488;-76
2023/10/19 08:19:31;;;;;;;6.65;4.10;;;9.30;99.90;;;;;;5074338;28;20044;-76
2023/10/19 08:21:57;;;;;;;7.45;4.40;;;9.40;99.90;;;;;;5074193;28;20480;-76
2023/10/19 08:24:23;;;;;;;7.38;5.00;;;9.50;99.90;;;;;;5073617;28;20047;-76
2023/10/19 08:26:50;;;;;;;6.97;4.15;;;9.40;99.90;;;;;;5075300;28;20029;-76
2023/10/19 08:29:19;;;;;;;6.57;4.20;;;9.40;99.90;;;;;;5057954;28;20079;-76
2023/10/19 08:31:44;;;;;;;6.68;4.18;;;9.50;99.90;;;;;;5055226;28;20036;-76
2023/10/19 08:34:13;;;;;;;6.95;4.32;;;9.60;99.90;;;;;;5074102;28;20123;-76
2023/10/19 08:36:39;;;;;;;7.03;4.05;;;9.70;99.90;;;;;;5074899;28;20119;-76
2023/10/19 08:39:12;;;;;;;6.82;4.30;;;9.60;99.90;;;;;;5058075;28;20043;-76
2023/10/19 08:41:40;;;;;;;7.72;4.85;;;9.70;99.90;;;;;;5073279;28;20047;-76
2023/10/19 08:44:17;;;;;;;7.63;4.43;;;9.60;99.90;;;;;;5074903;28;20037;-76
2023/10/19 08:46:44;;;;;;;7.50;4.43;;;9.60;99.90;;;;;;5074122;28;20096;-76
2023/10/19 08:49:14;;;;;;;7.32;4.78;;;9.80;99.90;;;;;;5074929;28;20048;-76
2023/10/19 08:51:44;;;;;;;7.18;4.15;;;9.80;99.90;;;;;;5073063;28;20040;-76
2023/10/19 08:54:11;;;;;;;8.23;4.88;;;9.90;99.90;;;;;;5055680;28;20033;-76
2023/10/19 08:56:38;;;;;;;8.50;5.18;;;9.80;99.90;;;;;;5038986;28;20053;-76
2023/10/19 08:59:06;;;;;;;10.88;5.90;;;9.80;99.90;;;;;;5054519;28;20079;-76
2023/10/19 09:01:31;;;;;;;9.43;5.50;;;9.80;99.90;;;;;;5057597;28;20045;-76
2023/10/19 09:03:58;;;;;;;10.13;6.85;;;9.80;99.90;;;;;;5061073;28;20036;-76
2023/10/19 09:06:24;;;;;;;10.13;5.50;;;9.80;99.90;;;;;;5066410;28;20068;-76
2023/10/19 09:08:49;;;;;;;8.30;4.68;;;9.80;99.90;;;;;;5062970;28;20073;-76
2023/10/19 09:11:15;;;;;;;9.00;5.18;;;9.90;99.90;;;;;;5057932;28;20457;-76
2023/10/19 09:13:46;;;;;;;9.13;5.97;;;9.90;99.90;;;;;;5056916;28;20385;-76
2023/10/19 09:16:16;;;;;;;9.70;6.20;;;10.00;99.90;;;;;;5074356;28;20040;-76
2023/10/19 09:18:42;;;;;;;10.48;6.00;;;9.90;99.90;;;;;;5074258;28;20112;-77
2023/10/19 09:21:11;;;;;;;9.75;6.07;;;9.90;99.90;;;;;;5057496;28;20048;-76
2023/10/19 09:23:37;;;;;;;9.52;5.72;;;9.90;99.90;;;;;;5056540;28;20044;-77
2023/10/19 09:26:05;;;;;;;9.18;5.60;;;9.80;99.90;;;;;;5057623;28;20439;-76
2023/10/19 09:28:34;;;;;;;10.30;5.90;;;9.80;99.90;;;;;;5057755;28;20040;-76
2023/10/19 09:31:00;;;;;;;9.52;6.18;;;9.80;99.90;;;;;;5057334;28;20126;-77
2023/10/19 09:33:27;;;;;;;10.43;6.18;;;9.90;99.90;;;;;;5055274;28;20041;-76
2023/10/19 09:35:53;;;;;;;9.38;5.88;;;9.90;99.90;;;;;;5065368;28;20033;-76
2023/10/19 09:38:22;;;;;;;11.45;6.80;;;9.80;99.90;;;;;;5070408;28;20076;-76
2023/10/19 09:40:49;;;;;;;8.70;5.70;;;9.80;99.90;;;;;;5051810;28;20142;-77
2023/10/19 09:43:22;;;;;;;9.70;6.13;;;9.80;99.90;;;;;;5063238;28;20033;-76
2023/10/19 09:45:53;;;;;;;9.82;6.28;;;9.80;99.90;;;;;;5069176;28;20051;-76
2023/10/19 09:48:19;;;;;;;9.75;6.30;;;9.90;99.90;;;;;;5073694;28;20070;-76
2023/10/19 09:50:54;;;;;;;9.45;6.32;;;9.90;99.90;;;;;;5073773;28;20033;-76
2023/10/19 09:53:23;;;;;;;8.80;5.03;;;9.90;99.90;;;;;;5071838;28;20043;-76
2023/10/19 09:55:54;;;;;;;8.50;5.32;;;9.90;99.90;;;;;;5049188;28;20059;-76
2023/10/19 09:58:24;;;;;;;10.65;6.43;;;10.00;99.90;;;;;;5056135;28;20089;-77
2023/10/19 10:00:50;;;;;;;10.70;6.65;;;10.00;99.90;;;;;;5073392;28;20040;-76
2023/10/19 10:03:44;;;;;;;11.85;5.80;;;10.10;99.90;;;;;;5073027;28;20049;-76
2023/10/19 10:06:14;;;;;;;10.23;5.78;;;10.10;99.90;;;;;;5080329;28;20040;-76
2023/10/19 10:08:42;;;;;;;8.95;5.40;;;10.10;99.90;;;;;;5062438;28;20032;-76
2023/10/19 10:11:37;;;;;;;11.27;6.95;;;10.20;99.90;;;;;;5060718;28;20047;-76
2023/10/19 10:14:21;;;;;;;11.13;6.07;;;10.20;99.90;;;;;;5055645;28;20045;-76
2023/10/19 10:16:48;;;;;;;9.18;5.88;;;10.10;99.90;;;;;;5072132;28;20063;-76
2023/10/19 10:19:20;;;;;;;11.43;6.63;;;10.10;99.90;;;;;;5070999;28;20045;-76
2023/10/19 10:22:11;;;;;;;9.88;6.50;;;10.20;99.90;;;;;;5056377;28;20039;-76
2023/10/19 10:24:43;;;;;;;10.25;6.70;;;10.20;99.90;;;;;;5057231;28;20524;-76
2023/10/19 10:27:10;;;;;;;9.68;6.45;;;10.20;99.90;;;;;;5052336;28;20068;-76
2023/10/19 10:29:35;;;;;;;12.18;7.82;;;10.20;99.90;;;;;;5052609;28;20124;-76
2023/10/19 10:32:02;;;;;;;9.88;6.30;;;10.20;99.90;;;;;;5064957;28;20119;-76
2023/10/19 10:34:33;;;;;;;9.75;6.72;;;10.20;99.90;;;;;;5065085;28;20052;-76
2023/10/19 10:37:07;;;;;;;10.88;6.97;;;10.20;99.90;;;;;;5048916;28;20112;-76
2023/10/19 10:39:36;;;;;;;10.05;6.80;;;10.20;99.90;;;;;;5067107;28;20093;-76
2023/10/19 10:42:04;;;;;;;9.60;6.78;;;10.20;99.90;;;;;;5066387;28;20056;-76
2023/10/19 10:44:40;;;;;;;9.43;6.70;;;10.20;99.90;;;;;;5052343;28;20449;-76
2023/10/19 10:47:09;;;;;;;10.60;7.40;;;10.20;99.90;;;;;;5070183;28;20051;-77
2023/10/19 10:49:51;;;;;;;10.25;6.15;;;10.20;99.90;;;;;;5055134;28;20362;-76
2023/10/19 10:52:33;;;;;;;9.57;6.50;;;10.20;99.90;;;;;;5072185;28;20405;-76
2023/10/19 10:55:06;;;;;;;11.38;6.80;;;10.20;99.90;;;;;;5048689;28;20032;-76
2023/10/19 10:57:33;;;;;;;13.00;8.23;;;10.20;99.90;;;;;;5053309;28;20071;-76
2023/10/19 11:00:04;;;;;;;10.20;7.68;;;10.30;99.90;;;;;;5069160;28;20048;-76
2023/10/19 11:02:30;;;;;;;11.75;7.72;;;10.30;99.90;;;;;;5050763;28;20040;-77
2023/10/19 11:04:56;;;;;;;11.30;7.53;;;10.30;99.90;;;;;;5053800;28;20039;-76
2023/10/19 11:07:21;;;;;;;10.93;7.68;;;10.40;99.90;;;;;;5055032;28;20485;-76
2023/10/19 11:09:47;;;;;;;10.20;7.60;;;10.40;99.90;;;;;;5070504;28;20098;-76
2023/10/19 11:12:15;;;;;;;10.90;7.63;;;10.40;99.90;;;;;;5041126;28;20049;-76
2023/10/19 11:15:00;;;;;;;13.35;8.70;;;10.40;99.90;;;;;;5069501;28;20507;-76
2023/10/19 11:17:30;;;;;;;11.43;8.20;;;10.50;99.90;;;;;;5071575;28;20032;-76
2023/10/19 11:19:57;;;;;;;13.90;9.25;;;10.40;99.90;;;;;;5069354;28;20115;-76
2023/10/19 11:22:26;;;;;;;13.40;9.48;;;10.40;99.90;;;;;;5066793;28;20040;-77
2023/10/19 11:24:56;;;;;;;12.82;9.23;;;10.40;99.90;;;;;;5060338;28;20028;-76
2023/10/19 11:27:29;;;;;;;12.25;8.70;;;10.40;99.90;;;;;;5053839;28;20115;-76
2023/10/19 11:29:59;;;;;;;11.25;8.95;;;10.40;99.90;;;;;;5069412;28;20044;-76
2023/10/19 11:32:38;;;;;;;11.90;9.65;;;10.40;99.90;;;;;;5070332;28;20401;-76
2023/10/19 11:35:04;;;;;;;11.45;8.82;;;10.40;99.90;;;;;;5053873;28;20045;-76
2023/10/19 11:37:42;;;;;;;12.38;8.93;;;10.40;99.90;;;;;;5054640;28;20036;-76
2023/10/19 11:40:08;;;;;;;11.55;8.80;;;10.40;99.90;;;;;;5065897;28;20055;-76
2023/10/19 11:42:34;;;;;;;13.93;9.13;;;10.40;99.90;;;;;;5064673;28;20036;-76
2023/10/19 11:44:59;;;;;;;11.95;9.18;;;10.40;99.90;;;;;;5052129;28;20393;-76
2023/10/19 11:47:25;;;;;;;11.35;8.93;;;10.40;99.90;;;;;;5068749;28;20029;-76
2023/10/19 11:49:50;;;;;;;12.93;8.80;;;10.40;99.90;;;;;;5053628;28;20048;-76
2023/10/19 11:52:16;;;;;;;13.65;9.63;;;10.40;99.90;;;;;;5051577;28;20036;-76
2023/10/19 11:54:42;;;;;;;13.25;9.35;;;10.40;99.90;;;;;;5049784;28;20051;-76
2023/10/19 11:57:07;;;;;;;12.93;9.88;;;10.40;99.90;;;;;;5070013;28;20082;-76
2023/10/19 11:59:33;;;;;;;14.73;8.93;;;10.50;99.90;;;;;;5079833;28;20037;-76
2023/10/19 12:02:00;;;;;;;12.43;9.30;;;10.50;99.90;;;;;;5038692;28;20044;-76
2023/10/19 12:04:26;;;;;;;15.00;10.48;;;10.50;99.90;;;;;;5064310;28;20103;-76
2023/10/19 12:06:53;;;;;;;13.00;8.18;;;10.50;99.90;;;;;;5054113;28;20496;-77
2023/10/19 12:09:24;;;;;;;14.50;9.65;;;10.60;99.90;;;;;;5054815;28;20075;-76
2023/10/19 12:11:49;;;;;;;10.38;7.80;;;10.60;99.90;;;;;;5054479;28;20431;-76
2023/10/19 12:14:15;;;;;;;12.70;8.20;;;10.60;99.90;;;;;;5041947;28;20043;-77
2023/10/19 12:16:41;;;;;;;10.43;7.60;;;10.60;99.90;;;;;;5034661;28;20086;-77
2023/10/19 12:19:07;;;;;;;10.35;7.60;;;10.50;99.90;;;;;;5052117;28;20036;-76
2023/10/19 12:21:37;;;;;;;11.63;7.13;;;10.50;99.90;;;;;;5054575;28;20440;-77
2023/10/19 12:24:04;;;;;;;11.93;7.70;;;10.60;99.90;;;;;;5050853;28;20063;-77
2023/10/19 12:26:30;;;;;;;11.05;6.43;;;10.50;99.90;;;;;;5065593;28;20120;-76
2023/10/19 12:28:56;;;;;;;9.35;6.00;;;10.60;99.90;;;;;;5052888;28;20128;-76
2023/10/19 12:31:23;;;;;;;9.45;6.00;;;10.60;99.90;;;;;;5053791;28;20040;-76
2023/10/19 12:33:49;;;;;;;10.05;6.78;;;10.60;99.90;;;;;;5067886;28;20049;-76
2023/10/19 12:38:54;;;;;;;11.15;7.25;;;10.60;99.90;;;;;;5062063;28;20049;-76
2023/10/19 12:41:20;;;;;;;10.90;7.35;;;10.60;99.90;;;;;;5052203;28;20048;-77
2023/10/19 12:43:47;;;;;;;14.35;8.30;;;10.50;99.90;;;;;;5070176;28;20033;-77
2023/10/19 12:46:14;;;;;;;12.23;8.77;;;10.40;99.90;;;;;;5067853;28;20037;-77
2023/10/19 12:48:43;;;;;;;9.82;7.22;;;10.40;99.90;;;;;;5071572;28;20074;-76
2023/10/19 12:51:11;;;;;;;14.05;8.45;;;10.40;99.90;;;;;;5071610;28;20412;-77
2023/10/19 12:53:38;;;;;;;13.10;9.45;;;10.40;99.90;;;;;;5049541;28;20119;-77
2023/10/19 12:56:05;;;;;;;12.07;8.52;;;10.40;99.90;;;;;;5088416;28;20053;-77
2023/10/19 12:58:31;;;;;;;14.70;9.50;;;10.40;99.90;;;;;;5059651;28;20074;-77
2023/10/19 13:00:58;;;;;;;12.15;9.13;;;10.40;99.90;;;;;;5076580;28;20497;-77
2023/10/19 13:03:27;;;;;;;14.52;8.80;;;10.30;99.90;;;;;;5054541;28;20490;-77
2023/10/19 13:05:53;;;;;;;12.55;7.90;;;10.40;99.90;;;;;;5069535;28;20051;-77
2023/10/19 13:08:19;;;;;;;9.52;6.80;;;10.30;99.90;;;;;;5055361;28;20075;-77
2023/10/19 13:10:48;;;;;;;11.23;6.88;;;10.40;99.90;;;;;;5060417;28;20029;-77
2023/10/19 13:13:14;;;;;;;10.70;7.13;;;10.40;99.90;;;;;;5076837;28;20082;-77
2023/10/19 13:15:44;;;;;;;12.15;6.53;;;10.30;99.90;;;;;;5057042;28;20044;-79
2023/10/19 13:18:21;;;;;;;10.98;7.03;;;10.30;99.90;;;;;;5055528;28;20515;-77
2023/10/19 13:20:48;;;;;;;9.05;5.82;;;10.30;99.90;;;;;;5073972;28;20048;-79
2023/10/19 13:23:21;;;;;;;10.15;5.65;;;10.30;99.90;;;;;;5057241;28;20555;-78